Delta State University, Mississippi
Current Conditions -  °F | °C
As of 1:35 PM on Thursday 27 Nov 2014 (Local Time) from KRNV Reporting Station
Broken Clouds Broken Clouds  
Wind Chill: 40°   Ceiling: 3200
Heat Index: 45°   Visibility: 10mi
Dew Point: 33°   Wind: 10mph
Humidity: 63%   Direction: 320°NW
Pressure: 30.49"   Gusts: NA
Location:  33.7453°N, 90.733°W
Report Text: KRNV 271935Z AUTO 32009KT 10SM BKN032 07/01 A3049 RMK AO2 T00740007
Loading
Personal Weather Stations






























Interactive Weather Map New forecast layout! Learn more

10-Day Weather Forecast

Advertisements
Track Severe Weather on mobile